RKPC/CJU METAR and TAF weather

Enter ICAO airport designator
Station Type Date Time Source
RKPC METAR 2022/12/04 05:00 UTC NOAA

RKPC 040500Z 01007KT 330V040 CAVOK 07/M00 Q1027 NOSIG


Station Type Date Time Source
RKPC Decoded METAR 2022/12/04 05:00 UTC NOAA

Cheju International Airport, Korea, South (RKPC) 33-30N 126-30E 28M
Dec 04, 2022 - 12:00 AM EST / 2022.12.04 0500 UTC
Wind: from the N (010 degrees) at 8 MPH (7 KT) (direction variable):0
Visibility: greater than 7 mile(s):0
Temperature: 44 F (7 C)
Dew Point: 32 F (0 C)
Relative Humidity: 60%
Pressure (altimeter): 30.33 in. Hg (1027 hPa)
ob: RKPC 040500Z 01007KT 330V040 CAVOK 07/M00 Q1027 NOSIG
cycle: 5

Station Type Date Time Source
RKPC TAF 2022/12/04 06:07 UTC NOAA

TAF RKPC 040500Z 0406/0512 01007KT 9999 SCT030 BKN120 TN04/0420Z TX06/0506Z

Example: see airport list